sensor_id;sensor_type;location;lat;lon;timestamp;P1;durP1;ratioP1;P2;durP2;ratioP2
56122;SDS011;42426;46.104;19.656;2022-08-01T00:01:59;7.60;;;5.32;;
56122;SDS011;42426;46.104;19.656;2022-08-01T00:04:25;3.67;;;3.35;;
56122;SDS011;42426;46.104;19.656;2022-08-01T00:06:51;7.47;;;4.85;;
56122;SDS011;42426;46.104;19.656;2022-08-01T00:09:17;4.90;;;4.40;;
56122;SDS011;42426;46.104;19.656;2022-08-01T00:11:43;9.85;;;5.95;;
56122;SDS011;42426;46.104;19.656;2022-08-01T00:14:10;7.75;;;5.22;;
56122;SDS011;42426;46.104;19.656;2022-08-01T00:16:36;8.75;;;4.80;;
56122;SDS011;42426;46.104;19.656;2022-08-01T00:19:02;5.80;;;4.57;;
56122;SDS011;42426;46.104;19.656;2022-08-01T00:21:29;7.53;;;4.75;;
56122;SDS011;42426;46.104;19.656;2022-08-01T00:23:55;6.50;;;5.35;;
56122;SDS011;42426;46.104;19.656;2022-08-01T00:26:21;7.70;;;4.85;;
56122;SDS011;42426;46.104;19.656;2022-08-01T00:28:47;6.40;;;4.43;;
56122;SDS011;42426;46.104;19.656;2022-08-01T00:31:13;8.52;;;4.63;;
56122;SDS011;42426;46.104;19.656;2022-08-01T00:33:39;7.18;;;4.78;;
56122;SDS011;42426;46.104;19.656;2022-08-01T00:36:05;7.82;;;6.28;;
56122;SDS011;42426;46.104;19.656;2022-08-01T00:38:31;8.40;;;4.72;;
56122;SDS011;42426;46.104;19.656;2022-08-01T00:40:57;6.00;;;5.15;;
56122;SDS011;42426;46.104;19.656;2022-08-01T00:43:24;4.10;;;3.65;;
56122;SDS011;42426;46.104;19.656;2022-08-01T00:45:50;4.95;;;4.28;;
56122;SDS011;42426;46.104;19.656;2022-08-01T00:48:16;4.75;;;3.58;;
56122;SDS011;42426;46.104;19.656;2022-08-01T00:50:42;6.70;;;5.07;;
56122;SDS011;42426;46.104;19.656;2022-08-01T00:53:08;4.38;;;3.95;;
56122;SDS011;42426;46.104;19.656;2022-08-01T00:55:34;6.60;;;4.38;;
56122;SDS011;42426;46.104;19.656;2022-08-01T00:58:00;5.43;;;4.93;;
56122;SDS011;42426;46.104;19.656;2022-08-01T01:00:26;6.95;;;4.75;;
56122;SDS011;42426;46.104;19.656;2022-08-01T01:02:53;8.98;;;5.03;;
56122;SDS011;42426;46.104;19.656;2022-08-01T01:05:19;7.63;;;4.22;;
56122;SDS011;42426;46.104;19.656;2022-08-01T01:08:04;7.07;;;4.72;;
56122;SDS011;42426;46.104;19.656;2022-08-01T01:13:23;8.15;;;4.72;;
56122;SDS011;42426;46.104;19.656;2022-08-01T01:15:59;9.05;;;5.25;;
56122;SDS011;42426;46.104;19.656;2022-08-01T01:18:27;12.25;;;5.07;;
56122;SDS011;42426;46.104;19.656;2022-08-01T01:21:03;6.65;;;5.22;;
56122;SDS011;42426;46.104;19.656;2022-08-01T01:32:10;6.63;;;4.50;;
56122;SDS011;42426;46.104;19.656;2022-08-01T01:34:42;5.95;;;4.43;;
56122;SDS011;42426;46.104;19.656;2022-08-01T01:37:12;5.32;;;4.55;;
56122;SDS011;42426;46.104;19.656;2022-08-01T01:39:42;8.27;;;4.72;;
56122;SDS011;42426;46.104;19.656;2022-08-01T01:42:11;5.97;;;4.65;;
56122;SDS011;42426;46.104;19.656;2022-08-01T01:44:37;8.60;;;5.07;;
56122;SDS011;42426;46.104;19.656;2022-08-01T01:47:04;6.78;;;4.53;;
56122;SDS011;42426;46.104;19.656;2022-08-01T01:49:31;5.78;;;4.95;;
56122;SDS011;42426;46.104;19.656;2022-08-01T01:51:58;5.13;;;4.63;;
56122;SDS011;42426;46.104;19.656;2022-08-01T01:54:28;5.78;;;4.90;;
56122;SDS011;42426;46.104;19.656;2022-08-01T01:56:58;6.15;;;4.50;;
56122;SDS011;42426;46.104;19.656;2022-08-01T01:59:27;8.48;;;4.93;;
56122;SDS011;42426;46.104;19.656;2022-08-01T02:01:56;7.05;;;4.55;;
56122;SDS011;42426;46.104;19.656;2022-08-01T02:04:24;5.57;;;4.65;;
56122;SDS011;42426;46.104;19.656;2022-08-01T02:06:52;7.97;;;5.20;;
56122;SDS011;42426;46.104;19.656;2022-08-01T02:09:19;6.15;;;4.50;;
56122;SDS011;42426;46.104;19.656;2022-08-01T02:11:47;5.53;;;5.03;;
56122;SDS011;42426;46.104;19.656;2022-08-01T02:14:15;11.13;;;5.53;;
56122;SDS011;42426;46.104;19.656;2022-08-01T02:16:44;9.95;;;4.78;;
56122;SDS011;42426;46.104;19.656;2022-08-01T02:19:13;7.13;;;5.30;;
56122;SDS011;42426;46.104;19.656;2022-08-01T02:24:09;5.95;;;5.30;;
56122;SDS011;42426;46.104;19.656;2022-08-01T02:26:55;7.30;;;5.15;;
56122;SDS011;42426;46.104;19.656;2022-08-01T02:29:47;6.78;;;4.20;;
56122;SDS011;42426;46.104;19.656;2022-08-01T02:32:43;8.70;;;5.28;;
56122;SDS011;42426;46.104;19.656;2022-08-01T02:35:13;6.60;;;5.10;;
56122;SDS011;42426;46.104;19.656;2022-08-01T02:37:55;6.50;;;5.80;;
56122;SDS011;42426;46.104;19.656;2022-08-01T02:40:23;5.07;;;4.55;;
56122;SDS011;42426;46.104;19.656;2022-08-01T02:42:54;9.27;;;5.22;;
56122;SDS011;42426;46.104;19.656;2022-08-01T02:45:22;6.97;;;5.38;;
56122;SDS011;42426;46.104;19.656;2022-08-01T02:47:50;8.07;;;5.40;;
56122;SDS011;42426;46.104;19.656;2022-08-01T02:50:19;6.30;;;5.53;;
56122;SDS011;42426;46.104;19.656;2022-08-01T02:52:48;7.68;;;4.82;;
56122;SDS011;42426;46.104;19.656;2022-08-01T02:55:16;6.25;;;4.45;;
56122;SDS011;42426;46.104;19.656;2022-08-01T02:57:44;5.65;;;5.10;;
56122;SDS011;42426;46.104;19.656;2022-08-01T03:00:13;6.80;;;5.03;;
56122;SDS011;42426;46.104;19.656;2022-08-01T03:02:40;6.82;;;5.35;;
56122;SDS011;42426;46.104;19.656;2022-08-01T03:05:08;7.38;;;5.30;;
56122;SDS011;42426;46.104;19.656;2022-08-01T03:07:39;9.30;;;5.15;;
56122;SDS011;42426;46.104;19.656;2022-08-01T03:10:06;9.27;;;6.50;;
56122;SDS011;42426;46.104;19.656;2022-08-01T03:12:33;6.30;;;5.55;;
56122;SDS011;42426;46.104;19.656;2022-08-01T03:15:02;5.82;;;5.15;;
56122;SDS011;42426;46.104;19.656;2022-08-01T03:17:30;6.60;;;5.90;;
56122;SDS011;42426;46.104;19.656;2022-08-01T03:19:57;8.68;;;5.60;;
56122;SDS011;42426;46.104;19.656;2022-08-01T03:22:26;7.20;;;6.50;;
56122;SDS011;42426;46.104;19.656;2022-08-01T03:24:54;8.10;;;5.57;;
56122;SDS011;42426;46.104;19.656;2022-08-01T03:27:22;7.13;;;5.80;;
56122;SDS011;42426;46.104;19.656;2022-08-01T03:29:49;6.88;;;6.18;;
56122;SDS011;42426;46.104;19.656;2022-08-01T03:32:17;6.78;;;6.07;;
56122;SDS011;42426;46.104;19.656;2022-08-01T03:34:44;7.38;;;5.65;;
56122;SDS011;42426;46.104;19.656;2022-08-01T03:37:12;12.65;;;6.60;;
56122;SDS011;42426;46.104;19.656;2022-08-01T03:39:50;9.23;;;7.22;;
56122;SDS011;42426;46.104;19.656;2022-08-01T03:42:23;18.77;;;12.52;;
56122;SDS011;42426;46.104;19.656;2022-08-01T03:44:54;16.35;;;12.35;;
56122;SDS011;42426;46.104;19.656;2022-08-01T03:47:36;15.40;;;10.82;;
56122;SDS011;42426;46.104;19.656;2022-08-01T03:50:03;13.30;;;9.60;;
56122;SDS011;42426;46.104;19.656;2022-08-01T03:52:31;11.23;;;8.02;;
56122;SDS011;42426;46.104;19.656;2022-08-01T03:55:01;9.48;;;7.60;;
56122;SDS011;42426;46.104;19.656;2022-08-01T03:57:32;9.55;;;7.55;;
56122;SDS011;42426;46.104;19.656;2022-08-01T03:59:58;11.98;;;7.90;;
56122;SDS011;42426;46.104;19.656;2022-08-01T04:02:26;9.10;;;7.65;;
56122;SDS011;42426;46.104;19.656;2022-08-01T04:04:52;11.60;;;7.47;;
56122;SDS011;42426;46.104;19.656;2022-08-01T04:07:25;9.68;;;7.53;;
56122;SDS011;42426;46.104;19.656;2022-08-01T04:10:08;14.15;;;9.05;;
56122;SDS011;42426;46.104;19.656;2022-08-01T04:12:34;10.57;;;7.47;;
56122;SDS011;42426;46.104;19.656;2022-08-01T04:15:00;12.10;;;8.02;;
56122;SDS011;42426;46.104;19.656;2022-08-01T04:17:25;11.98;;;8.75;;
56122;SDS011;42426;46.104;19.656;2022-08-01T04:19:51;13.35;;;9.15;;
56122;SDS011;42426;46.104;19.656;2022-08-01T04:22:17;11.02;;;8.50;;
56122;SDS011;42426;46.104;19.656;2022-08-01T04:24:44;12.15;;;8.82;;
56122;SDS011;42426;46.104;19.656;2022-08-01T04:27:16;14.27;;;7.85;;
56122;SDS011;42426;46.104;19.656;2022-08-01T04:29:43;11.13;;;7.78;;
56122;SDS011;42426;46.104;19.656;2022-08-01T04:32:12;12.90;;;9.05;;
56122;SDS011;42426;46.104;19.656;2022-08-01T04:34:39;17.48;;;9.95;;
56122;SDS011;42426;46.104;19.656;2022-08-01T04:37:08;13.73;;;7.20;;
56122;SDS011;42426;46.104;19.656;2022-08-01T04:39:35;13.30;;;9.35;;
56122;SDS011;42426;46.104;19.656;2022-08-01T04:42:06;16.00;;;10.73;;
56122;SDS011;42426;46.104;19.656;2022-08-01T04:44:32;10.63;;;8.40;;
56122;SDS011;42426;46.104;19.656;2022-08-01T04:46:59;11.57;;;8.82;;
56122;SDS011;42426;46.104;19.656;2022-08-01T04:49:28;14.00;;;9.40;;
56122;SDS011;42426;46.104;19.656;2022-08-01T04:51:56;15.93;;;9.40;;
56122;SDS011;42426;46.104;19.656;2022-08-01T04:54:29;11.88;;;9.98;;
56122;SDS011;42426;46.104;19.656;2022-08-01T04:56:59;13.32;;;10.55;;
56122;SDS011;42426;46.104;19.656;2022-08-01T04:59:26;18.88;;;9.50;;
56122;SDS011;42426;46.104;19.656;2022-08-01T05:02:04;11.93;;;9.05;;
56122;SDS011;42426;46.104;19.656;2022-08-01T05:04:30;10.68;;;9.10;;
56122;SDS011;42426;46.104;19.656;2022-08-01T05:06:56;17.60;;;9.52;;
56122;SDS011;42426;46.104;19.656;2022-08-01T05:09:22;12.55;;;8.20;;
56122;SDS011;42426;46.104;19.656;2022-08-01T05:11:48;13.63;;;8.65;;
56122;SDS011;42426;46.104;19.656;2022-08-01T05:14:14;18.48;;;9.52;;
56122;SDS011;42426;46.104;19.656;2022-08-01T05:16:40;10.70;;;7.20;;
56122;SDS011;42426;46.104;19.656;2022-08-01T05:19:06;15.35;;;7.68;;
56122;SDS011;42426;46.104;19.656;2022-08-01T05:21:33;14.52;;;9.23;;
56122;SDS011;42426;46.104;19.656;2022-08-01T05:24:00;12.55;;;8.38;;
56122;SDS011;42426;46.104;19.656;2022-08-01T05:26:25;10.00;;;7.32;;
56122;SDS011;42426;46.104;19.656;2022-08-01T05:28:51;11.00;;;7.65;;
56122;SDS011;42426;46.104;19.656;2022-08-01T05:31:17;11.20;;;8.32;;
56122;SDS011;42426;46.104;19.656;2022-08-01T05:33:43;11.50;;;8.52;;
56122;SDS011;42426;46.104;19.656;2022-08-01T05:36:08;18.27;;;8.35;;
56122;SDS011;42426;46.104;19.656;2022-08-01T05:38:34;17.27;;;8.07;;
56122;SDS011;42426;46.104;19.656;2022-08-01T05:41:00;12.38;;;8.00;;
56122;SDS011;42426;46.104;19.656;2022-08-01T05:43:29;13.93;;;7.85;;
56122;SDS011;42426;46.104;19.656;2022-08-01T05:46:03;11.85;;;7.75;;
56122;SDS011;42426;46.104;19.656;2022-08-01T05:48:29;11.80;;;7.82;;
56122;SDS011;42426;46.104;19.656;2022-08-01T05:50:55;15.65;;;7.85;;
56122;SDS011;42426;46.104;19.656;2022-08-01T05:53:21;12.75;;;6.82;;
56122;SDS011;42426;46.104;19.656;2022-08-01T05:55:46;9.07;;;7.07;;
56122;SDS011;42426;46.104;19.656;2022-08-01T05:58:12;11.55;;;6.90;;
56122;SDS011;42426;46.104;19.656;2022-08-01T06:00:38;12.95;;;8.07;;
56122;SDS011;42426;46.104;19.656;2022-08-01T06:03:04;21.00;;;12.68;;
56122;SDS011;42426;46.104;19.656;2022-08-01T06:05:30;13.90;;;6.28;;
56122;SDS011;42426;46.104;19.656;2022-08-01T06:07:56;10.73;;;7.07;;
56122;SDS011;42426;46.104;19.656;2022-08-01T06:10:23;7.47;;;6.25;;
56122;SDS011;42426;46.104;19.656;2022-08-01T06:12:48;14.02;;;6.90;;
56122;SDS011;42426;46.104;19.656;2022-08-01T06:15:14;12.73;;;7.40;;
56122;SDS011;42426;46.104;19.656;2022-08-01T06:17:40;9.02;;;5.63;;
56122;SDS011;42426;46.104;19.656;2022-08-01T06:20:06;8.52;;;5.97;;
56122;SDS011;42426;46.104;19.656;2022-08-01T06:22:33;8.45;;;5.90;;
56122;SDS011;42426;46.104;19.656;2022-08-01T06:24:58;8.48;;;5.57;;
56122;SDS011;42426;46.104;19.656;2022-08-01T06:27:24;12.50;;;6.72;;
56122;SDS011;42426;46.104;19.656;2022-08-01T06:29:51;10.32;;;5.97;;
56122;SDS011;42426;46.104;19.656;2022-08-01T06:32:18;11.43;;;5.68;;
56122;SDS011;42426;46.104;19.656;2022-08-01T06:34:45;15.65;;;5.90;;
56122;SDS011;42426;46.104;19.656;2022-08-01T06:37:10;8.05;;;4.93;;
56122;SDS011;42426;46.104;19.656;2022-08-01T06:39:39;17.13;;;5.90;;
56122;SDS011;42426;46.104;19.656;2022-08-01T06:42:05;11.25;;;5.22;;
56122;SDS011;42426;46.104;19.656;2022-08-01T06:44:31;10.02;;;5.78;;
56122;SDS011;42426;46.104;19.656;2022-08-01T06:46:57;9.43;;;5.10;;
56122;SDS011;42426;46.104;19.656;2022-08-01T06:49:24;7.13;;;5.20;;
56122;SDS011;42426;46.104;19.656;2022-08-01T06:51:59;7.65;;;5.30;;
56122;SDS011;42426;46.104;19.656;2022-08-01T06:54:35;6.43;;;5.15;;
56122;SDS011;42426;46.104;19.656;2022-08-01T06:57:00;6.13;;;5.03;;
56122;SDS011;42426;46.104;19.656;2022-08-01T06:59:29;11.70;;;5.93;;
56122;SDS011;42426;46.104;19.656;2022-08-01T07:01:55;15.90;;;5.47;;
56122;SDS011;42426;46.104;19.656;2022-08-01T07:04:23;10.77;;;4.57;;
56122;SDS011;42426;46.104;19.656;2022-08-01T07:06:49;8.48;;;5.68;;
56122;SDS011;42426;46.104;19.656;2022-08-01T07:09:15;9.02;;;5.43;;
56122;SDS011;42426;46.104;19.656;2022-08-01T07:11:40;9.43;;;4.60;;
56122;SDS011;42426;46.104;19.656;2022-08-01T07:14:06;5.30;;;4.80;;
56122;SDS011;42426;46.104;19.656;2022-08-01T07:16:32;5.00;;;4.50;;
56122;SDS011;42426;46.104;19.656;2022-08-01T07:18:58;5.82;;;4.47;;
56122;SDS011;42426;46.104;19.656;2022-08-01T07:21:23;9.82;;;4.70;;
56122;SDS011;42426;46.104;19.656;2022-08-01T07:23:50;5.50;;;4.90;;
56122;SDS011;42426;46.104;19.656;2022-08-01T07:26:16;16.20;;;5.88;;
56122;SDS011;42426;46.104;19.656;2022-08-01T07:28:42;9.45;;;5.38;;
56122;SDS011;42426;46.104;19.656;2022-08-01T07:31:08;13.65;;;5.13;;
56122;SDS011;42426;46.104;19.656;2022-08-01T07:33:34;9.50;;;4.43;;
56122;SDS011;42426;46.104;19.656;2022-08-01T07:36:00;6.63;;;4.28;;
56122;SDS011;42426;46.104;19.656;2022-08-01T07:38:26;7.35;;;4.80;;
56122;SDS011;42426;46.104;19.656;2022-08-01T07:40:52;6.82;;;4.32;;
56122;SDS011;42426;46.104;19.656;2022-08-01T07:43:19;5.88;;;4.25;;
56122;SDS011;42426;46.104;19.656;2022-08-01T07:45:46;6.25;;;4.53;;
56122;SDS011;42426;46.104;19.656;2022-08-01T07:48:12;6.65;;;4.32;;
56122;SDS011;42426;46.104;19.656;2022-08-01T07:50:38;6.30;;;4.70;;
56122;SDS011;42426;46.104;19.656;2022-08-01T07:53:03;5.90;;;4.43;;
56122;SDS011;42426;46.104;19.656;2022-08-01T07:55:29;6.63;;;4.85;;
56122;SDS011;42426;46.104;19.656;2022-08-01T07:57:55;5.68;;;4.80;;
56122;SDS011;42426;46.104;19.656;2022-08-01T08:00:21;7.50;;;5.05;;
56122;SDS011;42426;46.104;19.656;2022-08-01T08:02:47;10.27;;;4.93;;
56122;SDS011;42426;46.104;19.656;2022-08-01T08:05:13;5.95;;;5.15;;
56122;SDS011;42426;46.104;19.656;2022-08-01T08:07:39;7.22;;;4.78;;
56122;SDS011;42426;46.104;19.656;2022-08-01T08:10:05;8.35;;;5.03;;
56122;SDS011;42426;46.104;19.656;2022-08-01T08:12:31;9.68;;;4.82;;
56122;SDS011;42426;46.104;19.656;2022-08-01T08:14:57;7.85;;;4.72;;
56122;SDS011;42426;46.104;19.656;2022-08-01T08:17:24;5.10;;;4.30;;
56122;SDS011;42426;46.104;19.656;2022-08-01T08:19:50;8.25;;;4.65;;
56122;SDS011;42426;46.104;19.656;2022-08-01T08:22:16;5.55;;;3.97;;
56122;SDS011;42426;46.104;19.656;2022-08-01T08:24:42;7.95;;;4.18;;
56122;SDS011;42426;46.104;19.656;2022-08-01T08:27:08;13.57;;;4.28;;
56122;SDS011;42426;46.104;19.656;2022-08-01T08:29:34;4.47;;;3.97;;
56122;SDS011;42426;46.104;19.656;2022-08-01T08:32:00;5.45;;;3.90;;
56122;SDS011;42426;46.104;19.656;2022-08-01T08:34:27;5.28;;;4.13;;
56122;SDS011;42426;46.104;19.656;2022-08-01T08:36:54;17.70;;;5.10;;
56122;SDS011;42426;46.104;19.656;2022-08-01T08:39:21;5.18;;;4.53;;
56122;SDS011;42426;46.104;19.656;2022-08-01T08:41:47;18.20;;;6.05;;
56122;SDS011;42426;46.104;19.656;2022-08-01T08:44:13;10.15;;;4.50;;
56122;SDS011;42426;46.104;19.656;2022-08-01T08:46:43;5.80;;;4.63;;
56122;SDS011;42426;46.104;19.656;2022-08-01T08:49:11;9.35;;;4.68;;
56122;SDS011;42426;46.104;19.656;2022-08-01T08:51:41;5.78;;;4.50;;
56122;SDS011;42426;46.104;19.656;2022-08-01T08:54:09;9.05;;;5.07;;
56122;SDS011;42426;46.104;19.656;2022-08-01T08:56:37;6.60;;;4.68;;
56122;SDS011;42426;46.104;19.656;2022-08-01T08:59:04;10.13;;;5.00;;
56122;SDS011;42426;46.104;19.656;2022-08-01T09:01:31;5.90;;;4.80;;
56122;SDS011;42426;46.104;19.656;2022-08-01T09:04:01;7.50;;;4.90;;
56122;SDS011;42426;46.104;19.656;2022-08-01T09:06:30;15.02;;;4.93;;
56122;SDS011;42426;46.104;19.656;2022-08-01T09:08:57;7.25;;;4.88;;
56122;SDS011;42426;46.104;19.656;2022-08-01T09:11:23;6.43;;;5.15;;
56122;SDS011;42426;46.104;19.656;2022-08-01T09:14:02;11.02;;;5.78;;
56122;SDS011;42426;46.104;19.656;2022-08-01T09:16:30;8.48;;;4.70;;
56122;SDS011;42426;46.104;19.656;2022-08-01T09:19:09;6.57;;;5.15;;
56122;SDS011;42426;46.104;19.656;2022-08-01T09:21:41;9.23;;;5.47;;
56122;SDS011;42426;46.104;19.656;2022-08-01T09:24:24;5.85;;;5.10;;
56122;SDS011;42426;46.104;19.656;2022-08-01T09:26:51;8.38;;;5.05;;
56122;SDS011;42426;46.104;19.656;2022-08-01T09:29:19;11.90;;;5.63;;
56122;SDS011;42426;46.104;19.656;2022-08-01T09:31:47;7.97;;;5.60;;
56122;SDS011;42426;46.104;19.656;2022-08-01T09:34:13;6.82;;;5.18;;
56122;SDS011;42426;46.104;19.656;2022-08-01T09:36:43;8.13;;;5.03;;
56122;SDS011;42426;46.104;19.656;2022-08-01T09:39:16;6.80;;;4.45;;
56122;SDS011;42426;46.104;19.656;2022-08-01T09:41:44;15.55;;;5.88;;
56122;SDS011;42426;46.104;19.656;2022-08-01T09:44:10;6.93;;;5.32;;
56122;SDS011;42426;46.104;19.656;2022-08-01T09:46:43;7.90;;;5.32;;
56122;SDS011;42426;46.104;19.656;2022-08-01T09:49:28;6.82;;;5.53;;
56122;SDS011;42426;46.104;19.656;2022-08-01T09:52:17;5.55;;;4.88;;
56122;SDS011;42426;46.104;19.656;2022-08-01T09:54:58;6.93;;;4.88;;
56122;SDS011;42426;46.104;19.656;2022-08-01T09:57:25;5.95;;;5.03;;
56122;SDS011;42426;46.104;19.656;2022-08-01T09:59:53;6.22;;;5.65;;
56122;SDS011;42426;46.104;19.656;2022-08-01T10:02:31;7.05;;;5.60;;
56122;SDS011;42426;46.104;19.656;2022-08-01T10:05:06;19.60;;;6.78;;
56122;SDS011;42426;46.104;19.656;2022-08-01T10:07:34;7.95;;;5.07;;
56122;SDS011;42426;46.104;19.656;2022-08-01T10:10:19;6.25;;;4.90;;
56122;SDS011;42426;46.104;19.656;2022-08-01T10:12:45;13.40;;;5.80;;
56122;SDS011;42426;46.104;19.656;2022-08-01T10:15:16;6.35;;;4.90;;
56122;SDS011;42426;46.104;19.656;2022-08-01T10:17:47;5.30;;;4.68;;
56122;SDS011;42426;46.104;19.656;2022-08-01T10:20:20;12.93;;;5.37;;
56122;SDS011;42426;46.104;19.656;2022-08-01T10:22:47;6.97;;;4.28;;
56122;SDS011;42426;46.104;19.656;2022-08-01T10:25:14;11.63;;;5.85;;
56122;SDS011;42426;46.104;19.656;2022-08-01T10:27:43;9.48;;;4.95;;
56122;SDS011;42426;46.104;19.656;2022-08-01T10:30:10;8.27;;;5.57;;
56122;SDS011;42426;46.104;19.656;2022-08-01T10:32:37;5.72;;;4.88;;
56122;SDS011;42426;46.104;19.656;2022-08-01T10:35:03;27.55;;;6.80;;
56122;SDS011;42426;46.104;19.656;2022-08-01T10:37:29;13.25;;;6.03;;
56122;SDS011;42426;46.104;19.656;2022-08-01T10:39:56;22.00;;;6.15;;
56122;SDS011;42426;46.104;19.656;2022-08-01T10:42:22;4.90;;;4.50;;
56122;SDS011;42426;46.104;19.656;2022-08-01T10:44:47;10.93;;;5.50;;
56122;SDS011;42426;46.104;19.656;2022-08-01T10:47:15;10.13;;;4.80;;
56122;SDS011;42426;46.104;19.656;2022-08-01T10:49:45;19.70;;;5.72;;
56122;SDS011;42426;46.104;19.656;2022-08-01T10:52:19;9.60;;;5.18;;
56122;SDS011;42426;46.104;19.656;2022-08-01T10:54:46;9.63;;;4.90;;
56122;SDS011;42426;46.104;19.656;2022-08-01T10:57:12;11.63;;;5.25;;
56122;SDS011;42426;46.104;19.656;2022-08-01T10:59:48;7.72;;;5.18;;
56122;SDS011;42426;46.104;19.656;2022-08-01T11:02:31;12.63;;;5.28;;
56122;SDS011;42426;46.104;19.656;2022-08-01T11:05:02;14.63;;;6.00;;
56122;SDS011;42426;46.104;19.656;2022-08-01T11:12:48;8.32;;;5.00;;
56122;SDS011;42426;46.104;19.656;2022-08-01T11:17:45;6.93;;;4.93;;
56122;SDS011;42426;46.104;19.656;2022-08-01T11:30:53;8.82;;;4.95;;
56122;SDS011;42426;46.104;19.656;2022-08-01T11:41:27;5.90;;;5.00;;
56122;SDS011;42426;46.104;19.656;2022-08-01T11:46:45;6.18;;;4.90;;
56122;SDS011;42426;46.104;19.656;2022-08-01T11:54:37;8.52;;;5.78;;
56122;SDS011;42426;46.104;19.656;2022-08-01T11:57:04;8.68;;;5.20;;
56122;SDS011;42426;46.104;19.656;2022-08-01T11:59:41;22.23;;;5.95;;
56122;SDS011;42426;46.104;19.656;2022-08-01T12:02:16;10.60;;;5.75;;
56122;SDS011;42426;46.104;19.656;2022-08-01T12:07:26;7.88;;;5.80;;
56122;SDS011;42426;46.104;19.656;2022-08-01T12:09:57;8.18;;;5.82;;
56122;SDS011;42426;46.104;19.656;2022-08-01T12:13:00;6.05;;;5.32;;
56122;SDS011;42426;46.104;19.656;2022-08-01T12:15:31;12.60;;;5.38;;
56122;SDS011;42426;46.104;19.656;2022-08-01T12:18:03;5.65;;;5.10;;
56122;SDS011;42426;46.104;19.656;2022-08-01T12:20:34;7.97;;;4.85;;
56122;SDS011;42426;46.104;19.656;2022-08-01T12:23:06;30.67;;;7.13;;
56122;SDS011;42426;46.104;19.656;2022-08-01T12:25:36;18.45;;;6.75;;
56122;SDS011;42426;46.104;19.656;2022-08-01T12:28:06;8.73;;;5.05;;
56122;SDS011;42426;46.104;19.656;2022-08-01T12:30:34;6.65;;;5.00;;
56122;SDS011;42426;46.104;19.656;2022-08-01T12:33:05;5.72;;;5.22;;
56122;SDS011;42426;46.104;19.656;2022-08-01T12:35:32;6.90;;;5.25;;
56122;SDS011;42426;46.104;19.656;2022-08-01T12:38:00;13.93;;;5.68;;
56122;SDS011;42426;46.104;19.656;2022-08-01T12:40:29;7.50;;;4.72;;
56122;SDS011;42426;46.104;19.656;2022-08-01T12:42:57;18.20;;;5.72;;
56122;SDS011;42426;46.104;19.656;2022-08-01T12:45:31;8.60;;;4.85;;
56122;SDS011;42426;46.104;19.656;2022-08-01T12:48:07;7.65;;;5.20;;
56122;SDS011;42426;46.104;19.656;2022-08-01T12:50:35;12.65;;;7.65;;
56122;SDS011;42426;46.104;19.656;2022-08-01T12:53:03;12.75;;;5.70;;
56122;SDS011;42426;46.104;19.656;2022-08-01T12:55:30;11.45;;;4.95;;
56122;SDS011;42426;46.104;19.656;2022-08-01T12:58:07;7.45;;;4.85;;
56122;SDS011;42426;46.104;19.656;2022-08-01T13:00:35;4.88;;;3.80;;
56122;SDS011;42426;46.104;19.656;2022-08-01T13:03:09;7.55;;;3.90;;
56122;SDS011;42426;46.104;19.656;2022-08-01T13:08:12;6.97;;;4.65;;
56122;SDS011;42426;46.104;19.656;2022-08-01T13:10:39;6.53;;;4.50;;
56122;SDS011;42426;46.104;19.656;2022-08-01T13:13:05;7.75;;;4.47;;
56122;SDS011;42426;46.104;19.656;2022-08-01T13:15:33;8.70;;;4.53;;
56122;SDS011;42426;46.104;19.656;2022-08-01T13:18:01;7.18;;;4.10;;
56122;SDS011;42426;46.104;19.656;2022-08-01T13:23:41;12.60;;;6.57;;
56122;SDS011;42426;46.104;19.656;2022-08-01T13:29:11;11.00;;;5.03;;
56122;SDS011;42426;46.104;19.656;2022-08-01T13:31:38;6.63;;;4.07;;
56122;SDS011;42426;46.104;19.656;2022-08-01T13:34:05;9.63;;;5.05;;
56122;SDS011;42426;46.104;19.656;2022-08-01T13:36:31;8.07;;;5.32;;
56122;SDS011;42426;46.104;19.656;2022-08-01T13:38:58;7.85;;;4.50;;
56122;SDS011;42426;46.104;19.656;2022-08-01T13:41:43;5.18;;;4.53;;
56122;SDS011;42426;46.104;19.656;2022-08-01T13:44:10;7.68;;;4.57;;
56122;SDS011;42426;46.104;19.656;2022-08-01T13:46:39;4.97;;;4.40;;
56122;SDS011;42426;46.104;19.656;2022-08-01T13:49:06;12.48;;;5.03;;
56122;SDS011;42426;46.104;19.656;2022-08-01T13:51:33;8.88;;;4.68;;
56122;SDS011;42426;46.104;19.656;2022-08-01T13:53:59;15.52;;;5.38;;
56122;SDS011;42426;46.104;19.656;2022-08-01T13:56:25;6.78;;;6.18;;
56122;SDS011;42426;46.104;19.656;2022-08-01T13:58:55;5.97;;;5.43;;
56122;SDS011;42426;46.104;19.656;2022-08-01T14:01:22;6.35;;;5.75;;
56122;SDS011;42426;46.104;19.656;2022-08-01T14:03:48;5.90;;;5.13;;
56122;SDS011;42426;46.104;19.656;2022-08-01T14:06:16;7.18;;;5.40;;
56122;SDS011;42426;46.104;19.656;2022-08-01T14:08:42;5.35;;;4.78;;
56122;SDS011;42426;46.104;19.656;2022-08-01T14:11:09;7.20;;;5.38;;
56122;SDS011;42426;46.104;19.656;2022-08-01T14:13:35;10.63;;;5.40;;
56122;SDS011;42426;46.104;19.656;2022-08-01T14:16:05;10.27;;;4.85;;
56122;SDS011;42426;46.104;19.656;2022-08-01T14:18:32;8.23;;;5.10;;
56122;SDS011;42426;46.104;19.656;2022-08-01T14:20:58;8.73;;;4.45;;
56122;SDS011;42426;46.104;19.656;2022-08-01T14:23:24;7.97;;;4.13;;
56122;SDS011;42426;46.104;19.656;2022-08-01T14:25:51;9.15;;;5.30;;
56122;SDS011;42426;46.104;19.656;2022-08-01T14:28:17;6.93;;;4.47;;
56122;SDS011;42426;46.104;19.656;2022-08-01T14:30:43;9.38;;;4.45;;
56122;SDS011;42426;46.104;19.656;2022-08-01T14:33:12;9.52;;;5.55;;
56122;SDS011;42426;46.104;19.656;2022-08-01T14:35:38;8.55;;;4.88;;
56122;SDS011;42426;46.104;19.656;2022-08-01T14:38:04;7.63;;;4.40;;
56122;SDS011;42426;46.104;19.656;2022-08-01T14:40:31;10.98;;;5.20;;
56122;SDS011;42426;46.104;19.656;2022-08-01T14:42:57;6.20;;;4.47;;
56122;SDS011;42426;46.104;19.656;2022-08-01T14:45:23;8.75;;;5.00;;
56122;SDS011;42426;46.104;19.656;2022-08-01T14:47:48;19.60;;;4.82;;
56122;SDS011;42426;46.104;19.656;2022-08-01T14:50:15;7.00;;;4.18;;
56122;SDS011;42426;46.104;19.656;2022-08-01T14:52:41;6.30;;;4.40;;
56122;SDS011;42426;46.104;19.656;2022-08-01T14:55:08;7.55;;;4.70;;
56122;SDS011;42426;46.104;19.656;2022-08-01T14:57:35;6.95;;;4.97;;
56122;SDS011;42426;46.104;19.656;2022-08-01T15:00:03;5.93;;;4.60;;
56122;SDS011;42426;46.104;19.656;2022-08-01T15:02:31;6.85;;;4.70;;
56122;SDS011;42426;46.104;19.656;2022-08-01T15:04:56;11.38;;;5.05;;
56122;SDS011;42426;46.104;19.656;2022-08-01T15:07:22;13.85;;;4.90;;
56122;SDS011;42426;46.104;19.656;2022-08-01T15:09:48;13.00;;;4.55;;
56122;SDS011;42426;46.104;19.656;2022-08-01T15:12:14;48.22;;;10.20;;
56122;SDS011;42426;46.104;19.656;2022-08-01T15:14:40;23.70;;;7.13;;
56122;SDS011;42426;46.104;19.656;2022-08-01T15:19:46;11.68;;;4.43;;
56122;SDS011;42426;46.104;19.656;2022-08-01T15:22:13;19.05;;;6.30;;
56122;SDS011;42426;46.104;19.656;2022-08-01T15:24:40;10.88;;;4.78;;
56122;SDS011;42426;46.104;19.656;2022-08-01T15:27:06;6.38;;;4.50;;
56122;SDS011;42426;46.104;19.656;2022-08-01T15:29:33;6.95;;;5.05;;
56122;SDS011;42426;46.104;19.656;2022-08-01T15:32:02;14.85;;;4.90;;
56122;SDS011;42426;46.104;19.656;2022-08-01T15:34:30;8.07;;;5.13;;
56122;SDS011;42426;46.104;19.656;2022-08-01T15:36:56;8.85;;;4.10;;
56122;SDS011;42426;46.104;19.656;2022-08-01T15:39:22;11.65;;;4.90;;
56122;SDS011;42426;46.104;19.656;2022-08-01T15:41:49;8.80;;;4.35;;